Time;durP1;ratioP1;P1;durP2;ratioP2;P2;SDS_P1;SDS_P2;PMS_P1;PMS_P2;Temp;Humidity;BMP_temperature;BMP_pressure;BME280_temperature;BME280_humidity;BME280_pressure;Samples;Min_cycle;Max_cycle;Signal;HPM_P1;HPM_P2
2021/12/15 00:00:18;;;;;;;71.03;27.23;;;;;;;-1.24;100.00;100804.84;5056644;28;20478;-75
2021/12/15 00:03:06;;;;;;;72.10;27.25;;;;;;;-1.31;100.00;100801.28;5057393;28;20049;-75
2021/12/15 00:05:34;;;;;;;71.90;26.60;;;;;;;-1.17;100.00;100806.69;5056488;28;20051;-76
2021/12/15 00:08:04;;;;;;;91.35;33.25;;;;;;;-1.28;100.00;100803.94;5056375;28;20049;-75
2021/12/15 00:10:32;;;;;;;59.15;23.85;;;;;;;-1.29;100.00;100817.16;5056242;28;20056;-75
2021/12/15 00:12:59;;;;;;;64.63;24.45;;;;;;;-1.25;100.00;100818.97;5056314;28;20052;-77
2021/12/15 00:15:29;;;;;;;67.10;25.40;;;;;;;-1.22;100.00;100801.34;5056247;28;20048;-74
2021/12/15 00:17:57;;;;;;;69.00;26.30;;;;;;;-1.22;100.00;100798.69;5054147;28;20041;-75
2021/12/15 00:20:27;;;;;;;66.90;26.77;;;;;;;-1.12;100.00;100804.03;5036283;28;20107;-75
2021/12/15 00:22:57;;;;;;;69.22;25.40;;;;;;;-1.09;100.00;100804.97;5036121;28;20050;-75
2021/12/15 00:25:28;;;;;;;69.88;27.58;;;;;;;-1.18;100.00;100802.25;5036372;28;20049;-78
2021/12/15 00:27:56;;;;;;;79.25;31.33;;;;;;;-1.18;100.00;100797.81;5036702;28;20061;-76
2021/12/15 00:30:24;;;;;;;72.00;28.02;;;;;;;-1.27;100.00;100789.81;5036109;28;20116;-76
2021/12/15 00:32:52;;;;;;;140.80;48.05;;;;;;;-1.25;100.00;100792.47;5034976;28;20052;-75
2021/12/15 00:35:20;;;;;;;75.90;29.20;;;;;;;-1.32;100.00;100796.84;5035952;28;20042;-75
2021/12/15 00:37:50;;;;;;;74.07;29.92;;;;;;;-1.24;100.00;100787.19;5035744;28;20140;-75
2021/12/15 00:40:20;;;;;;;89.60;38.25;;;;;;;-1.21;100.00;100781.91;5053579;28;20044;-75
2021/12/15 00:42:48;;;;;;;73.78;26.73;;;;;;;-1.21;100.00;100789.84;5055848;28;20393;-75
2021/12/15 00:45:16;;;;;;;72.03;28.02;;;;;;;-1.18;100.00;100783.69;5055633;28;20045;-75
2021/12/15 00:47:44;;;;;;;82.10;31.00;;;;;;;-1.25;100.00;100787.16;5055489;28;20048;-78
2021/12/15 00:50:15;;;;;;;106.35;36.42;;;;;;;-1.11;100.00;100787.25;5055522;28;20044;-75
2021/12/15 00:52:44;;;;;;;70.15;28.67;;;;;;;-1.12;100.00;100788.13;5056070;28;20448;-75
2021/12/15 00:55:16;;;;;;;74.82;29.20;;;;;;;-1.11;100.00;100790.81;5055344;28;20052;-75
2021/12/15 00:57:44;;;;;;;76.45;27.70;;;;;;;-1.20;100.00;100791.63;5056750;28;20041;-75
2021/12/15 01:00:14;;;;;;;77.95;31.15;;;;;;;-1.12;100.00;100788.13;5055283;28;20045;-74
2021/12/15 01:02:42;;;;;;;71.47;27.52;;;;;;;-1.05;100.00;100781.97;5055834;28;20071;-74
2021/12/15 01:05:12;;;;;;;81.43;31.77;;;;;;;-1.08;100.00;100779.31;5055279;28;20118;-77
2021/12/15 01:07:40;;;;;;;74.55;28.83;;;;;;;-1.03;100.00;100777.56;5057005;28;20497;-75
2021/12/15 01:10:09;;;;;;;66.45;26.75;;;;;;;-1.03;100.00;100786.44;5055363;28;20478;-75
2021/12/15 01:12:52;;;;;;;73.13;28.35;;;;;;;-1.00;100.00;100790.00;5055146;28;20099;-76
2021/12/15 01:20:56;;;;;;;67.60;25.52;;;;;;;-0.93;100.00;100797.09;5056994;28;20505;-75
2021/12/15 01:23:26;;;;;;;64.25;25.38;;;;;;;-0.96;100.00;100798.00;5055416;28;20056;-75
2021/12/15 01:25:56;;;;;;;65.28;26.20;;;;;;;-0.89;100.00;100796.25;5055916;28;20071;-74
2021/12/15 01:28:26;;;;;;;63.47;25.02;;;;;;;-0.92;100.00;100797.13;5055032;28;20119;-75
2021/12/15 01:30:56;;;;;;;66.57;25.77;;;;;;;-0.86;100.00;100806.88;5035691;28;20052;-74
2021/12/15 01:33:24;;;;;;;76.38;27.92;;;;;;;-0.83;100.00;100798.91;5035000;28;20057;-74
2021/12/15 01:35:53;;;;;;;64.57;26.33;;;;;;;-0.88;100.00;100809.53;5034701;28;20062;-74
2021/12/15 01:38:23;;;;;;;61.33;25.55;;;;;;;-0.87;100.00;100802.44;5032789;28;20120;-74
2021/12/15 01:40:51;;;;;;;63.28;25.13;;;;;;;-0.92;100.00;100797.13;5014937;28;20050;-74
2021/12/15 01:43:36;;;;;;;65.80;24.42;;;;;;;-0.88;100.00;100796.25;5014379;28;20125;-75
2021/12/15 01:48:56;;;;;;;64.90;25.75;;;;;;;-0.74;100.00;100793.69;5016850;28;20060;-75
2021/12/15 01:51:24;;;;;;;66.25;25.50;;;;;;;-0.80;100.00;100790.09;5015304;28;20100;-75
2021/12/15 01:53:52;;;;;;;66.07;26.15;;;;;;;-0.77;100.00;100775.09;5014850;28;20057;-74
2021/12/15 01:56:20;;;;;;;66.57;27.67;;;;;;;-0.80;100.00;100780.41;5014758;28;20050;-75
2021/12/15 01:58:49;;;;;;;67.80;24.83;;;;;;;-0.82;100.00;100775.94;5014315;28;20391;-74
2021/12/15 02:01:17;;;;;;;72.93;26.95;;;;;;;-0.68;100.00;100774.25;5014611;28;20050;-76
2021/12/15 02:03:45;;;;;;;68.93;27.60;;;;;;;-0.68;100.00;100776.91;5014502;28;20493;-76
2021/12/15 02:06:13;;;;;;;72.85;26.80;;;;;;;-0.64;100.00;100778.69;5014640;28;20553;-75
2021/12/15 02:08:41;;;;;;;76.05;27.77;;;;;;;-0.73;100.00;100782.19;5014496;28;20048;-76
2021/12/15 02:11:09;;;;;;;73.60;28.52;;;;;;;-0.65;100.00;100768.06;5014416;28;20046;-74
2021/12/15 02:13:37;;;;;;;72.30;27.90;;;;;;;-0.61;100.00;100770.75;5014120;28;20042;-75
2021/12/15 02:16:07;;;;;;;75.30;27.95;;;;;;;-0.55;100.00;100771.66;5014421;28;20509;-75
2021/12/15 02:18:37;;;;;;;70.60;27.45;;;;;;;-0.59;100.00;100763.69;5014269;28;20466;-75
2021/12/15 02:21:08;;;;;;;85.85;30.27;;;;;;;-0.57;100.00;100773.44;5015201;28;20045;-75
2021/12/15 02:23:45;;;;;;;67.18;28.55;;;;;;;-0.63;100.00;100783.09;5015920;28;20056;-75
2021/12/15 02:26:16;;;;;;;79.18;28.40;;;;;;;-0.48;100.00;100781.41;5016015;28;20446;-75
2021/12/15 02:28:49;;;;;;;85.07;31.15;;;;;;;-0.44;100.00;100775.25;5014314;28;20069;-74
2021/12/15 02:31:31;;;;;;;85.35;28.48;;;;;;;-0.44;100.00;100784.06;5014509;28;20077;-74
2021/12/15 02:34:07;;;;;;;83.45;29.52;;;;;;;-0.50;100.00;100784.06;5014456;28;20045;-75
2021/12/15 02:39:22;;;;;;;74.00;29.20;;;;;;;-0.48;100.00;100778.75;5034188;28;20559;-74
2021/12/15 02:41:49;;;;;;;83.25;29.55;;;;;;;-0.47;100.00;100777.88;5053510;28;20110;-75
2021/12/15 02:44:18;;;;;;;82.65;29.33;;;;;;;-0.40;100.00;100779.69;5053503;28;20486;-75
2021/12/15 02:46:46;;;;;;;79.07;29.02;;;;;;;-0.38;100.00;100777.91;5053404;28;20494;-75
2021/12/15 02:49:16;;;;;;;70.60;27.27;;;;;;;-0.37;100.00;100786.78;5053481;28;20045;-76
2021/12/15 02:51:48;;;;;;;75.57;29.98;;;;;;;-0.35;100.00;100792.97;5053375;28;20409;-75
2021/12/15 02:54:16;;;;;;;74.22;29.25;;;;;;;-0.43;100.00;100790.28;5054977;28;20371;-75
2021/12/15 02:56:45;;;;;;;84.80;30.23;;;;;;;-0.41;100.00;100785.88;5052649;28;20045;-75
2021/12/15 02:59:15;;;;;;;107.32;35.53;;;;;;;-0.43;100.00;100784.97;5053225;28;20041;-75
2021/12/15 03:01:57;;;;;;;104.03;38.88;;;;;;;-0.40;100.00;100789.44;5054758;28;20051;-74
2021/12/15 03:04:30;;;;;;;82.43;31.67;;;;;;;-0.40;100.00;100800.03;5054140;28;20049;-75
2021/12/15 03:07:07;;;;;;;80.20;30.25;;;;;;;-0.39;100.00;100796.50;5054911;28;20049;-74
2021/12/15 03:15:29;;;;;;;75.38;27.95;;;;;;;-0.26;100.00;100778.81;5054462;28;20068;-76
2021/12/15 03:17:58;;;;;;;73.63;27.50;;;;;;;-0.17;100.00;100787.72;5053684;28;20047;-75
2021/12/15 03:20:28;;;;;;;69.95;27.80;;;;;;;-0.19;100.00;100768.25;5053048;28;20041;-77
2021/12/15 03:22:57;;;;;;;74.63;27.30;;;;;;;-0.20;100.00;100773.56;5053011;28;20037;-77
2021/12/15 03:25:29;;;;;;;74.88;28.55;;;;;;;-0.22;100.00;100788.56;5052509;28;20052;-76
2021/12/15 03:36:34;;;;;;;74.05;28.85;;;;;;;-0.15;100.00;100777.13;5037837;28;20107;-75
2021/12/15 03:39:05;;;;;;;69.25;27.98;;;;;;;-0.10;100.00;100783.31;5054130;28;20045;-76
2021/12/15 03:41:33;;;;;;;68.82;28.10;;;;;;;-0.09;100.00;100779.78;5052662;28;20049;-77
2021/12/15 03:44:02;;;;;;;69.93;28.85;;;;;;;-0.10;100.00;100777.09;5052726;28;20553;-76
2021/12/15 03:46:30;;;;;;;82.20;30.73;;;;;;;-0.12;100.00;100776.22;5052701;28;20048;-75
2021/12/15 03:48:58;;;;;;;74.60;30.13;;;;;;;-0.13;100.00;100780.66;5052796;28;20046;-76
2021/12/15 03:51:25;;;;;;;70.88;28.65;;;;;;;-0.10;100.00;100788.63;5052755;28;20391;-77
2021/12/15 03:53:53;;;;;;;74.38;29.83;;;;;;;-0.12;100.00;100794.81;5052821;28;20045;-74
2021/12/15 03:56:22;;;;;;;76.05;29.92;;;;;;;-0.10;100.00;100791.28;5052492;28;20056;-75
2021/12/15 03:58:50;;;;;;;73.00;29.02;;;;;;;-0.12;100.00;100797.47;5052831;28;20045;-75
2021/12/15 04:01:21;;;;;;;77.55;29.63;;;;;;;-0.07;100.00;100793.03;5052769;28;20041;-75
2021/12/15 04:03:51;;;;;;;67.85;29.55;;;;;;;-0.11;100.00;100789.50;5053709;28;20048;-75
2021/12/15 04:06:22;;;;;;;71.55;27.80;;;;;;;-0.08;100.00;100804.56;5052794;28;20398;-75
2021/12/15 04:08:50;;;;;;;81.38;30.08;;;;;;;-0.13;100.00;100798.34;5055433;28;20099;-75
2021/12/15 04:11:19;;;;;;;75.18;28.33;;;;;;;-0.09;100.00;100792.16;5056257;28;20045;-74
2021/12/15 04:13:48;;;;;;;72.20;29.60;;;;;;;-0.07;100.00;100799.25;5056304;28;20068;-75
2021/12/15 04:16:39;;;;;;;77.32;31.23;;;;;;;-0.06;100.00;100793.06;5056128;28;20049;-74
2021/12/15 04:19:08;;;;;;;74.40;29.58;;;;;;;0.06;100.00;100800.19;5056298;28;20053;-75
2021/12/15 04:21:38;;;;;;;76.85;30.30;;;;;;;0.01;100.00;100801.94;5058086;28;20053;-75
2021/12/15 04:24:07;;;;;;;75.60;28.80;;;;;;;0.08;100.00;100810.78;5055519;28;20045;-77
2021/12/15 04:26:34;;;;;;;73.13;29.92;;;;;;;0.09;100.00;100804.59;5056003;28;20049;-76
2021/12/15 04:29:04;;;;;;;80.10;29.15;;;;;;;0.14;100.00;100814.38;5056091;28;20041;-75
2021/12/15 04:31:36;;;;;;;74.90;30.92;;;;;;;0.12;100.00;100810.81;5056064;28;20047;-77
2021/12/15 04:34:06;;;;;;;83.70;31.23;;;;;;;0.22;100.00;100806.41;5056036;28;20041;-76
2021/12/15 04:36:36;;;;;;;77.82;30.70;;;;;;;0.24;100.00;100809.06;5055984;28;20124;-75
2021/12/15 04:39:06;;;;;;;82.32;31.60;;;;;;;0.24;100.00;100804.66;5055547;28;20098;-75
2021/12/15 04:41:34;;;;;;;87.53;31.20;;;;;;;0.20;100.00;100809.94;5055813;28;20049;-76
2021/12/15 04:44:09;;;;;;;86.18;32.05;;;;;;;0.13;100.00;100806.38;5055584;28;20121;-77
2021/12/15 04:46:39;;;;;;;99.32;41.28;;;;;;;0.15;100.00;100804.59;5056199;28;20041;-76
2021/12/15 04:49:09;;;;;;;132.85;58.95;;;;;;;0.17;100.00;100813.47;5055583;28;20041;-83
2021/12/15 04:51:37;;;;;;;157.20;71.95;;;;;;;0.16;100.00;100810.81;5057318;28;20490;-78
2021/12/15 04:54:05;;;;;;;134.25;58.17;;;;;;;0.18;100.00;100811.72;5055199;28;20055;-75
2021/12/15 04:56:33;;;;;;;104.95;39.33;;;;;;;0.18;100.00;100819.69;5055527;28;20516;-75
2021/12/15 04:59:00;;;;;;;145.45;58.05;;;;;;;0.19;100.00;100819.66;5055567;28;20048;-76
2021/12/15 05:01:29;;;;;;;143.95;59.20;;;;;;;0.22;100.00;100819.72;5055523;28;20051;-76
2021/12/15 05:03:57;;;;;;;127.18;53.58;;;;;;;0.21;100.00;100820.59;5055326;28;20227;-76
2021/12/15 05:06:25;;;;;;;107.45;39.00;;;;;;;0.19;100.00;100819.66;5055384;28;20110;-76
2021/12/15 05:08:52;;;;;;;119.15;47.35;;;;;;;0.16;100.00;100818.78;5039498;28;20049;-75
2021/12/15 05:11:20;;;;;;;103.47;38.10;;;;;;;0.13;100.00;100822.31;5035238;28;20045;-75
2021/12/15 05:13:47;;;;;;;108.85;43.58;;;;;;;0.17;100.00;100813.47;5035187;28;20087;-75
2021/12/15 05:16:16;;;;;;;111.28;42.95;;;;;;;0.16;100.00;100817.00;5035191;28;20041;-76
2021/12/15 05:18:46;;;;;;;105.38;37.50;;;;;;;0.17;100.00;100824.09;5035164;28;20068;-75
2021/12/15 05:21:13;;;;;;;106.07;42.20;;;;;;;0.16;100.00;100822.31;5034107;28;20050;-75
2021/12/15 05:23:44;;;;;;;90.47;36.65;;;;;;;0.18;100.00;100835.63;5031697;28;20128;-75
2021/12/15 05:26:12;;;;;;;99.45;34.45;;;;;;;0.20;100.00;100840.03;5033249;28;20076;-75
2021/12/15 05:28:40;;;;;;;99.78;37.88;;;;;;;0.22;100.00;100837.41;5031650;28;20049;-74
2021/12/15 05:31:08;;;;;;;108.95;38.20;;;;;;;0.20;100.00;100841.84;5031611;28;20049;-74
2021/12/15 05:33:35;;;;;;;109.60;40.60;;;;;;;0.20;100.00;100852.47;5031428;28;20037;-74
2021/12/15 05:36:06;;;;;;;112.82;40.15;;;;;;;0.24;100.00;100847.16;5030959;28;20053;-80
2021/12/15 05:38:33;;;;;;;106.32;41.58;;;;;;;0.22;100.00;100845.38;5027310;28;20128;-76
2021/12/15 05:41:01;;;;;;;99.20;41.55;;;;;;;0.25;100.00;100848.94;5011731;28;20069;-74
2021/12/15 05:43:28;;;;;;;100.32;41.17;;;;;;;0.27;100.00;100854.25;5011483;28;20049;-75
2021/12/15 05:45:56;;;;;;;98.47;38.50;;;;;;;0.24;100.00;100857.81;5011592;28;20056;-75
2021/12/15 05:48:24;;;;;;;103.32;36.45;;;;;;;0.23;100.00;100848.06;5011374;28;20056;-75
2021/12/15 05:50:54;;;;;;;91.40;35.15;;;;;;;0.27;100.00;100852.50;5010778;28;20065;-75
2021/12/15 05:53:23;;;;;;;92.68;35.15;;;;;;;0.24;100.00;100847.16;5011423;28;20049;-75
2021/12/15 05:55:52;;;;;;;89.38;35.13;;;;;;;0.28;100.00;100842.72;5011176;28;20050;-75
2021/12/15 05:58:20;;;;;;;88.93;35.25;;;;;;;0.24;100.00;100846.28;5011213;28;20425;-75
2021/12/15 06:00:48;;;;;;;98.22;37.40;;;;;;;0.24;100.00;100852.50;5011293;28;20050;-75
2021/12/15 06:03:16;;;;;;;111.30;41.72;;;;;;;0.23;100.00;100857.78;5010724;28;20803;-75
2021/12/15 06:05:44;;;;;;;94.68;36.80;;;;;;;0.23;100.00;100858.69;5010710;28;20056;-75
2021/12/15 06:08:12;;;;;;;95.72;36.50;;;;;;;0.23;100.00;100869.31;5011778;28;20390;-74
2021/12/15 06:10:41;;;;;;;99.85;37.00;;;;;;;0.22;100.00;100869.28;5014497;28;20049;-74
2021/12/15 06:13:11;;;;;;;114.75;41.70;;;;;;;0.20;100.00;100863.97;5014320;28;20045;-74
2021/12/15 06:15:40;;;;;;;106.43;41.05;;;;;;;0.24;100.00;100867.53;5014420;28;20431;-75
2021/12/15 06:18:09;;;;;;;99.32;35.15;;;;;;;0.23;100.00;100871.06;5014441;28;20483;-74
2021/12/15 06:20:38;;;;;;;94.20;35.15;;;;;;;0.25;100.00;100864.88;5013967;28;20111;-75
2021/12/15 06:23:10;;;;;;;89.75;36.10;;;;;;;0.28;100.00;100874.63;5014378;28;20073;-75
2021/12/15 06:25:41;;;;;;;103.75;42.40;;;;;;;0.25;100.00;100875.53;5013998;28;20131;-75
2021/12/15 06:28:09;;;;;;;118.78;47.25;;;;;;;0.25;100.00;100882.59;5014335;28;20045;-75
2021/12/15 06:30:38;;;;;;;102.03;38.63;;;;;;;0.26;100.00;100882.63;5013661;28;20052;-74
2021/12/15 06:33:07;;;;;;;100.13;34.47;;;;;;;0.27;100.00;100881.72;5014153;28;20049;-75
2021/12/15 06:35:35;;;;;;;82.30;34.35;;;;;;;0.28;100.00;100880.84;5013679;28;20038;-75
2021/12/15 06:38:03;;;;;;;93.13;35.92;;;;;;;0.29;100.00;100881.72;5013854;28;20058;-74
2021/12/15 06:40:31;;;;;;;85.78;34.63;;;;;;;0.28;100.00;100888.81;5013887;28;20042;-76
2021/12/15 06:42:59;;;;;;;83.72;35.28;;;;;;;0.30;100.00;100891.47;5014024;28;20050;-75
2021/12/15 06:45:34;;;;;;;90.18;34.65;;;;;;;0.34;100.00;100897.69;5013818;28;20037;-75
2021/12/15 06:59:12;;;;;;;98.53;40.70;;;;;;;0.34;100.00;100916.28;4972596;28;20054;-74
2021/12/15 07:01:40;;;;;;;98.90;38.20;;;;;;;0.33;100.00;100917.19;4972562;28;20047;-76
2021/12/15 07:04:07;;;;;;;107.10;42.55;;;;;;;0.38;100.00;100920.72;4972167;28;20062;-75
2021/12/15 07:06:35;;;;;;;115.10;41.45;;;;;;;0.40;100.00;100922.50;4972567;28;20054;-75
2021/12/15 07:09:03;;;;;;;117.82;46.05;;;;;;;0.39;100.00;100925.16;4972491;28;20079;-75
2021/12/15 07:11:30;;;;;;;108.03;44.90;;;;;;;0.40;100.00;100930.47;4972477;28;20047;-75
2021/12/15 07:13:58;;;;;;;87.03;36.28;;;;;;;0.43;100.00;100932.25;4972513;28;20051;-75
2021/12/15 07:16:28;;;;;;;88.22;35.45;;;;;;;0.39;100.00;100936.66;4972424;28;20058;-75
2021/12/15 07:19:07;;;;;;;118.15;52.20;;;;;;;0.37;100.00;100942.88;4973492;28;20055;-75
2021/12/15 07:21:38;;;;;;;102.00;40.08;;;;;;;0.43;100.00;100942.91;4972237;28;20050;-76
2021/12/15 07:24:07;;;;;;;127.80;53.45;;;;;;;0.39;100.00;100941.13;4972828;28;20119;-74
2021/12/15 07:26:35;;;;;;;128.68;52.63;;;;;;;0.39;100.00;100943.78;4972348;28;20134;-76
2021/12/15 07:29:03;;;;;;;136.55;53.95;;;;;;;0.38;100.00;100950.84;4972291;28;20058;-74
2021/12/15 07:31:32;;;;;;;134.10;52.92;;;;;;;0.43;100.00;100943.78;4972393;28;20050;-76
2021/12/15 07:33:59;;;;;;;138.00;59.75;;;;;;;0.49;100.00;100942.03;4975770;28;20086;-75
2021/12/15 07:36:27;;;;;;;136.52;60.50;;;;;;;0.46;100.00;100948.22;5013024;28;20112;-75
2021/12/15 07:38:57;;;;;;;131.85;57.88;;;;;;;0.53;100.00;100938.50;5026018;28;20496;-74
2021/12/15 07:41:28;;;;;;;100.80;45.20;;;;;;;0.57;100.00;100937.63;5052817;28;20056;-74
2021/12/15 07:43:59;;;;;;;83.68;36.78;;;;;;;0.56;100.00;100934.06;5056590;28;20540;-75
2021/12/15 07:46:26;;;;;;;107.00;39.53;;;;;;;0.51;100.00;100937.59;5056473;28;20133;-76
2021/12/15 07:48:55;;;;;;;117.20;48.20;;;;;;;0.60;100.00;100936.72;5057051;28;20045;-75
2021/12/15 07:51:23;;;;;;;170.88;61.35;;;;;;;0.57;100.00;100945.59;5052975;28;20037;-75
2021/12/15 07:53:51;;;;;;;139.15;54.50;;;;;;;0.59;100.00;100949.16;5036915;28;20055;-75
2021/12/15 07:56:19;;;;;;;162.18;63.75;;;;;;;0.63;100.00;100955.38;5036841;28;20068;-77
2021/12/15 07:58:46;;;;;;;137.80;54.75;;;;;;;0.59;100.00;100957.13;5036208;28;20111;-77
2021/12/15 08:01:16;;;;;;;123.70;51.83;;;;;;;0.63;100.00;100966.00;5036362;28;20068;-75
2021/12/15 08:03:44;;;;;;;114.28;40.58;;;;;;;0.63;100.00;100969.53;5035101;28;20931;-74
2021/12/15 08:06:13;;;;;;;113.43;43.17;;;;;;;0.68;100.00;100970.44;5032914;28;20053;-75
2021/12/15 08:08:40;;;;;;;111.72;40.13;;;;;;;0.74;100.00;100969.56;5032716;28;20045;-78
2021/12/15 08:11:08;;;;;;;116.97;42.85;;;;;;;0.70;100.00;100981.09;5032451;28;20045;-74
2021/12/15 08:13:37;;;;;;;93.78;39.25;;;;;;;0.70;100.00;100981.97;5033193;28;20457;-74
2021/12/15 08:16:05;;;;;;;99.70;40.80;;;;;;;0.75;100.00;100983.75;5032659;28;20064;-75
2021/12/15 08:18:33;;;;;;;110.30;40.78;;;;;;;0.72;100.00;100985.50;5032986;28;20425;-75
2021/12/15 08:21:04;;;;;;;102.78;38.70;;;;;;;0.74;100.00;100985.53;5031326;28;20383;-74
2021/12/15 08:23:33;;;;;;;97.18;36.95;;;;;;;0.72;100.00;100987.31;5034191;28;20045;-77
2021/12/15 08:26:00;;;;;;;108.75;34.85;;;;;;;0.71;100.00;100985.53;5032709;28;20422;-75
2021/12/15 08:28:28;;;;;;;117.90;41.65;;;;;;;0.75;100.00;100992.63;5033247;28;20049;-75
2021/12/15 08:30:56;;;;;;;135.75;47.17;;;;;;;0.84;100.00;100984.66;5035834;28;20414;-78
2021/12/15 08:33:24;;;;;;;126.47;44.38;;;;;;;0.72;100.00;100982.84;5036041;28;20045;-74
2021/12/15 08:35:56;;;;;;;126.20;48.28;;;;;;;0.77;100.00;100988.19;5035669;28;20406;-74
2021/12/15 08:38:24;;;;;;;122.75;45.70;;;;;;;0.82;100.00;100988.22;5037544;28;20049;-74
2021/12/15 08:40:53;;;;;;;124.05;47.95;;;;;;;0.88;100.00;100989.97;5055854;28;20045;-74
2021/12/15 08:43:22;;;;;;;110.03;42.88;;;;;;;0.86;100.00;100995.31;5055771;28;20045;-75
2021/12/15 08:45:53;;;;;;;118.45;48.53;;;;;;;0.89;100.00;100995.31;5055390;28;20489;-75
2021/12/15 08:48:21;;;;;;;144.07;56.40;;;;;;;0.94;100.00;101003.28;5057081;28;20482;-74
2021/12/15 08:50:49;;;;;;;124.30;45.90;;;;;;;0.92;100.00;101005.06;5055698;28;20049;-74
2021/12/15 08:53:17;;;;;;;100.28;39.80;;;;;;;0.92;100.00;101005.06;5055234;28;20048;-74
2021/12/15 08:55:47;;;;;;;102.72;40.03;;;;;;;0.96;100.00;101010.41;5055815;28;20045;-74
2021/12/15 08:58:17;;;;;;;101.97;40.45;;;;;;;0.95;100.00;101013.06;5055575;28;20048;-74
2021/12/15 09:00:45;;;;;;;97.78;39.50;;;;;;;0.94;100.00;101013.94;5055126;28;20052;-74
2021/12/15 09:03:14;;;;;;;101.53;40.30;;;;;;;1.04;100.00;101014.84;5055385;28;20045;-74
2021/12/15 09:05:42;;;;;;;104.22;40.83;;;;;;;1.00;100.00;101021.94;5055425;28;20040;-74
2021/12/15 09:08:11;;;;;;;97.25;37.58;;;;;;;0.98;100.00;101021.03;5055486;28;20045;-74
2021/12/15 09:10:42;;;;;;;88.03;35.65;;;;;;;0.96;100.00;101025.47;5055368;28;20410;-74
2021/12/15 09:13:10;;;;;;;102.90;39.75;;;;;;;1.00;100.00;101019.25;5055603;28;20045;-74
2021/12/15 09:15:40;;;;;;;89.13;35.95;;;;;;;0.91;100.00;101012.19;5055371;28;20493;-74
2021/12/15 09:18:08;;;;;;;109.82;43.45;;;;;;;0.93;100.00;101002.44;5055161;28;20041;-74
2021/12/15 09:20:38;;;;;;;105.68;40.33;;;;;;;0.93;100.00;100998.84;5055069;28;20045;-74
2021/12/15 09:23:08;;;;;;;108.35;42.75;;;;;;;0.96;100.00;101001.53;5054980;28;20418;-74
2021/12/15 09:25:36;;;;;;;100.47;43.75;;;;;;;0.99;100.00;100998.88;5054795;28;20513;-74
2021/12/15 09:28:04;;;;;;;115.10;49.13;;;;;;;0.99;100.00;100997.09;5054820;28;20409;-74
2021/12/15 09:30:33;;;;;;;97.72;41.65;;;;;;;1.01;100.00;100994.44;5055059;28;20398;-75
2021/12/15 09:33:02;;;;;;;97.18;40.83;;;;;;;0.99;100.00;100996.19;5054843;28;20461;-75
2021/12/15 09:35:31;;;;;;;95.57;37.05;;;;;;;1.00;100.00;100993.56;5054990;28;20703;-74
2021/12/15 09:38:00;;;;;;;96.38;39.42;;;;;;;1.03;100.00;100995.34;5054921;28;20060;-74
2021/12/15 09:40:27;;;;;;;85.50;34.88;;;;;;;1.09;100.00;100987.38;5054601;28;20486;-74
2021/12/15 09:42:55;;;;;;;97.47;38.42;;;;;;;1.06;100.00;100986.47;5054533;28;20106;-75
2021/12/15 09:45:36;;;;;;;96.00;38.63;;;;;;;1.09;100.00;100986.47;5054574;28;20132;-74
2021/12/15 09:56:49;;;;;;;116.43;46.10;;;;;;;1.08;100.00;100985.59;4994420;28;20062;-75
2021/12/15 10:02:10;;;;;;;118.43;50.38;;;;;;;1.03;100.00;100976.72;4992806;28;20057;-75
2021/12/15 10:04:45;;;;;;;95.70;41.67;;;;;;;1.06;100.00;100975.81;4993237;28;20062;-74
2021/12/15 10:07:22;;;;;;;99.05;40.92;;;;;;;1.06;100.00;100971.41;4993234;28;20450;-74
2021/12/15 10:18:38;;;;;;;82.63;31.52;;;;;;;1.06;100.00;100952.78;4954528;28;20043;-75
2021/12/15 10:21:09;;;;;;;81.05;30.17;;;;;;;1.09;100.00;100958.09;4954767;28;20159;-75
2021/12/15 10:23:40;;;;;;;77.57;32.28;;;;;;;1.06;100.00;100957.19;4955577;28;20122;-74
2021/12/15 10:26:09;;;;;;;81.75;30.60;;;;;;;1.07;100.00;100959.88;4953771;28;20051;-74
2021/12/15 10:28:38;;;;;;;97.53;35.58;;;;;;;1.11;100.00;100958.09;4981663;28;20058;-75
2021/12/15 10:31:08;;;;;;;83.53;32.08;;;;;;;1.12;100.00;100957.19;4992360;28;20209;-75
2021/12/15 10:33:38;;;;;;;103.63;37.60;;;;;;;1.14;100.00;100956.31;4994175;28;20062;-75
2021/12/15 10:36:09;;;;;;;101.22;36.50;;;;;;;1.13;100.00;100949.22;4992372;28;20140;-75
2021/12/15 10:38:41;;;;;;;90.80;37.33;;;;;;;1.13;100.00;100951.88;4992794;28;20503;-74
2021/12/15 10:41:10;;;;;;;99.07;37.10;;;;;;;1.14;100.00;100952.75;4992854;28;20069;-73
2021/12/15 10:43:42;;;;;;;90.75;32.13;;;;;;;1.12;100.00;100944.78;4992151;28;20146;-74
2021/12/15 10:46:14;;;;;;;87.90;32.08;;;;;;;1.09;100.00;100939.47;5008855;28;20406;-75
2021/12/15 10:48:48;;;;;;;92.13;34.38;;;;;;;1.13;100.00;100946.56;5053670;28;20102;-75
2021/12/15 10:51:28;;;;;;;85.07;32.85;;;;;;;1.18;100.00;100948.34;5053463;28;20056;-75
2021/12/15 10:53:57;;;;;;;88.68;33.30;;;;;;;1.15;100.00;100943.88;5053978;28;20075;-74
2021/12/15 10:56:27;;;;;;;91.07;35.17;;;;;;;1.20;100.00;100941.25;5053031;28;20041;-74
2021/12/15 10:58:57;;;;;;;100.20;38.75;;;;;;;1.19;100.00;100937.66;5053367;28;20486;-75
2021/12/15 11:01:50;;;;;;;94.82;36.00;;;;;;;1.19;100.00;100939.47;5053624;28;20513;-74
2021/12/15 11:04:34;;;;;;;88.95;34.28;;;;;;;1.20;100.00;100935.91;5054868;28;20068;-74
2021/12/15 11:07:13;;;;;;;96.45;35.97;;;;;;;1.25;100.00;100934.13;5054637;28;20063;-74
2021/12/15 11:09:44;;;;;;;94.03;34.67;;;;;;;1.24;100.00;100941.25;5054673;28;20045;-74
2021/12/15 11:12:15;;;;;;;83.47;32.45;;;;;;;1.25;100.00;100942.13;5053216;28;20083;-76
2021/12/15 11:14:45;;;;;;;93.20;33.95;;;;;;;1.24;100.00;100938.59;5053458;28;20045;-76
2021/12/15 11:17:15;;;;;;;91.50;35.25;;;;;;;1.24;100.00;100938.59;5052906;28;20049;-74
2021/12/15 11:19:49;;;;;;;83.00;32.95;;;;;;;1.29;100.00;100935.91;5053145;28;20044;-74
2021/12/15 11:22:50;;;;;;;90.13;38.33;;;;;;;1.32;100.00;100938.56;5054851;28;20041;-75
2021/12/15 11:25:21;;;;;;;78.93;32.90;;;;;;;1.36;100.00;100935.00;5011178;28;20057;-74
2021/12/15 11:27:51;;;;;;;84.75;35.78;;;;;;;1.40;100.00;100922.59;5012455;28;20062;-74
2021/12/15 11:30:24;;;;;;;94.43;37.03;;;;;;;1.40;100.00;100926.13;5011306;28;20056;-75
2021/12/15 11:32:55;;;;;;;101.75;39.85;;;;;;;1.41;100.00;100929.69;5011272;28;20065;-75
2021/12/15 11:35:25;;;;;;;79.25;31.45;;;;;;;1.43;100.00;100939.47;5011539;28;20450;-74
2021/12/15 11:37:58;;;;;;;83.70;39.28;;;;;;;1.40;100.00;100944.75;5011848;28;20058;-76
2021/12/15 11:40:32;;;;;;;119.03;53.35;;;;;;;1.41;100.00;100935.00;5010963;28;20459;-76
2021/12/15 11:43:00;;;;;;;85.35;38.95;;;;;;;1.49;100.00;100938.53;5012410;28;20054;-75
2021/12/15 11:45:28;;;;;;;95.65;41.33;;;;;;;1.43;100.00;100944.78;5011045;28;20068;-75
2021/12/15 11:48:13;;;;;;;80.05;33.92;;;;;;;1.39;100.00;100945.66;5011140;28;20068;-74
2021/12/15 11:50:43;;;;;;;73.53;33.03;;;;;;;1.41;100.00;100940.34;5010968;28;20481;-74
2021/12/15 11:53:23;;;;;;;83.15;34.15;;;;;;;1.38;100.00;100943.88;5010614;28;20129;-74
2021/12/15 11:55:50;;;;;;;82.88;38.20;;;;;;;1.39;100.00;100942.97;5012209;28;20042;-75
2021/12/15 11:58:30;;;;;;;88.47;38.05;;;;;;;1.43;100.00;100942.13;5012881;28;20056;-74
2021/12/15 12:00:58;;;;;;;101.53;39.97;;;;;;;1.43;100.00;100939.47;5054202;28;20045;-75
2021/12/15 12:03:26;;;;;;;109.18;43.97;;;;;;;1.43;100.00;100944.78;5052771;28;20041;-74
2021/12/15 12:05:53;;;;;;;117.10;42.28;;;;;;;1.36;100.00;100944.78;5052764;28;20067;-74
2021/12/15 12:08:22;;;;;;;107.40;42.45;;;;;;;1.32;100.00;100935.91;5052302;28;20052;-75
2021/12/15 12:10:52;;;;;;;113.75;40.97;;;;;;;1.40;100.00;100938.56;5052730;28;20045;-75
2021/12/15 12:13:25;;;;;;;113.57;43.60;;;;;;;1.41;100.00;100937.69;5052471;28;20040;-75